createdAt,value
2022-11-29T00:01:10.930Z,6.75
2022-11-29T00:03:37.576Z,7.90
2022-11-29T00:08:31.319Z,10.15
2022-11-29T00:11:03.355Z,6.25
2022-11-29T00:13:29.764Z,6.78
2022-11-29T00:15:56.145Z,6.32
2022-11-29T00:18:22.541Z,9.18
2022-11-29T00:20:48.950Z,5.43
2022-11-29T00:23:15.339Z,7.57
2022-11-29T00:25:41.721Z,7.63
2022-11-29T00:28:08.152Z,6.25
2022-11-29T00:30:34.874Z,7.50
2022-11-29T00:33:02.989Z,8.60
2022-11-29T00:35:29.391Z,6.93
2022-11-29T00:37:55.803Z,8.95
2022-11-29T00:40:22.205Z,7.40
2022-11-29T00:42:48.618Z,5.93
2022-11-29T00:45:15.012Z,7.15
2022-11-29T00:47:41.460Z,9.82
2022-11-29T00:50:08.222Z,10.68
2022-11-29T00:52:34.626Z,8.05
2022-11-29T00:55:01.090Z,5.03
2022-11-29T00:57:27.631Z,6.32
2022-11-29T01:02:20.389Z,10.73
2022-11-29T01:04:47.211Z,8.63
2022-11-29T01:07:13.802Z,8.35
2022-11-29T01:09:40.325Z,10.45
2022-11-29T01:12:06.890Z,5.07
2022-11-29T01:14:33.316Z,6.10
2022-11-29T01:16:59.826Z,12.02
2022-11-29T01:19:26.270Z,8.13
2022-11-29T01:21:52.724Z,5.47
2022-11-29T01:24:19.111Z,9.25
2022-11-29T01:26:45.778Z,9.90
2022-11-29T01:31:39.296Z,10.52
2022-11-29T01:34:06.896Z,4.65
2022-11-29T01:36:34.390Z,10.23
2022-11-29T01:39:02.397Z,6.43
2022-11-29T01:41:32.075Z,9.90
2022-11-29T01:44:06.907Z,11.13
2022-11-29T01:46:39.115Z,6.07
2022-11-29T01:49:22.125Z,9.60
2022-11-29T01:51:55.883Z,12.13
2022-11-29T01:54:22.701Z,8.80
2022-11-29T01:56:51.616Z,8.05
2022-11-29T01:59:22.066Z,8.95
2022-11-29T02:01:48.637Z,7.70
2022-11-29T02:04:17.418Z,9.65
2022-11-29T02:06:44.392Z,7.05
2022-11-29T02:09:19.747Z,7.95
2022-11-29T02:12:11.706Z,8.60
2022-11-29T02:15:06.766Z,10.48
2022-11-29T02:17:44.948Z,5.88
2022-11-29T02:20:26.607Z,6.47
2022-11-29T02:22:56.027Z,8.10
2022-11-29T02:26:00.708Z,10.85
2022-11-29T02:28:36.610Z,7.80
2022-11-29T02:31:39.908Z,7.43
2022-11-29T02:34:06.293Z,12.10
2022-11-29T02:36:45.359Z,10.93
2022-11-29T02:39:36.399Z,10.25
2022-11-29T02:42:52.583Z,12.10
2022-11-29T02:45:41.755Z,7.60
2022-11-29T02:48:27.538Z,9.38
2022-11-29T02:51:19.792Z,6.00
2022-11-29T02:54:16.637Z,12.07
2022-11-29T02:56:46.219Z,9.85
2022-11-29T02:59:16.654Z,9.75
2022-11-29T03:01:52.416Z,6.57
2022-11-29T03:05:10.320Z,7.88
2022-11-29T03:07:45.791Z,6.32
2022-11-29T03:10:49.179Z,7.10
2022-11-29T03:13:45.425Z,7.07
2022-11-29T03:16:28.532Z,8.43
2022-11-29T03:19:00.550Z,6.90
2022-11-29T03:21:41.782Z,7.43
2022-11-29T03:24:45.111Z,9.70
2022-11-29T03:27:22.068Z,7.63
2022-11-29T03:29:56.127Z,9.27
2022-11-29T03:32:29.881Z,8.40
2022-11-29T03:35:07.050Z,7.00
2022-11-29T03:40:06.745Z,12.20
2022-11-29T03:42:41.062Z,4.90
2022-11-29T03:45:15.289Z,9.27
2022-11-29T03:47:51.285Z,6.72
2022-11-29T03:50:25.018Z,6.03
2022-11-29T03:53:00.156Z,8.77
2022-11-29T03:55:50.535Z,6.63
2022-11-29T03:58:48.611Z,8.90
2022-11-29T04:01:51.013Z,5.70
2022-11-29T04:04:27.516Z,9.20
2022-11-29T04:07:18.554Z,7.45
2022-11-29T04:10:11.729Z,11.27
2022-11-29T04:12:57.299Z,8.30
2022-11-29T04:16:04.129Z,7.03
2022-11-29T04:18:46.708Z,9.25
2022-11-29T04:21:43.258Z,7.78
2022-11-29T04:24:38.917Z,5.60
2022-11-29T04:27:17.575Z,8.60
2022-11-29T04:30:02.565Z,7.25
2022-11-29T04:33:10.098Z,4.75
2022-11-29T04:35:42.841Z,8.68
2022-11-29T04:38:45.416Z,8.10
2022-11-29T04:41:20.856Z,6.53
2022-11-29T04:43:59.284Z,9.70
2022-11-29T04:46:47.781Z,5.93
2022-11-29T04:49:52.041Z,3.40
2022-11-29T04:52:36.664Z,5.10
2022-11-29T04:55:30.475Z,8.45
2022-11-29T04:58:22.854Z,9.25
2022-11-29T05:01:07.949Z,12.07
2022-11-29T05:03:41.684Z,5.47
2022-11-29T05:06:19.094Z,7.22
2022-11-29T05:08:59.379Z,6.25
2022-11-29T05:11:35.003Z,7.60
2022-11-29T05:14:17.540Z,8.07
2022-11-29T05:16:48.823Z,6.80
2022-11-29T05:19:41.483Z,8.00
2022-11-29T05:22:34.110Z,18.50
2022-11-29T05:25:30.363Z,18.90
2022-11-29T05:28:10.014Z,12.68
2022-11-29T05:31:18.764Z,8.90
2022-11-29T05:33:45.154Z,9.55
2022-11-29T05:36:29.862Z,9.43
2022-11-29T05:39:15.812Z,13.00
2022-11-29T05:41:56.747Z,13.43
2022-11-29T05:44:35.535Z,10.18
2022-11-29T05:47:05.928Z,8.60
2022-11-29T05:49:44.751Z,7.30
2022-11-29T05:52:39.212Z,7.70
2022-11-29T05:55:15.027Z,5.18
2022-11-29T05:58:08.390Z,6.50
2022-11-29T06:00:45.958Z,8.02
2022-11-29T06:03:24.007Z,9.45
2022-11-29T06:05:58.323Z,9.68
2022-11-29T06:08:44.522Z,7.63
2022-11-29T06:11:16.487Z,9.52
2022-11-29T06:14:07.942Z,7.32
2022-11-29T06:16:56.929Z,7.90
2022-11-29T06:19:59.674Z,8.00
2022-11-29T06:22:48.921Z,9.38
2022-11-29T06:25:41.827Z,7.53
2022-11-29T06:28:41.720Z,5.40
2022-11-29T06:31:29.527Z,6.57
2022-11-29T06:34:09.228Z,8.90
2022-11-29T06:37:08.653Z,10.65
2022-11-29T06:39:35.583Z,7.10
2022-11-29T06:42:02.185Z,9.18
2022-11-29T06:47:01.084Z,8.85
2022-11-29T06:49:35.600Z,12.80
2022-11-29T06:52:26.488Z,4.93
2022-11-29T06:55:07.561Z,10.10
2022-11-29T06:57:36.919Z,8.40
2022-11-29T07:00:16.298Z,11.18
2022-11-29T07:03:20.202Z,9.15
2022-11-29T07:05:47.351Z,6.63
2022-11-29T07:08:19.982Z,11.45
2022-11-29T07:10:49.940Z,8.05
2022-11-29T07:13:18.028Z,11.57
2022-11-29T07:16:07.077Z,10.18
2022-11-29T07:18:39.264Z,10.27
2022-11-29T07:21:16.712Z,11.68
2022-11-29T07:24:04.547Z,14.60
2022-11-29T07:26:43.593Z,12.10
2022-11-29T07:29:25.264Z,10.38
2022-11-29T07:32:34.348Z,10.70
2022-11-29T07:35:08.662Z,11.82
2022-11-29T07:37:57.588Z,8.73
2022-11-29T07:40:24.183Z,15.35
2022-11-29T07:45:27.385Z,12.93
2022-11-29T07:47:54.111Z,10.93
2022-11-29T07:50:21.691Z,11.88
2022-11-29T07:52:48.708Z,14.52
2022-11-29T07:55:19.152Z,13.07
2022-11-29T07:57:46.553Z,13.88
2022-11-29T08:00:13.933Z,15.07
2022-11-29T08:02:41.770Z,14.05
2022-11-29T08:05:09.227Z,11.45
2022-11-29T08:07:37.816Z,15.35
2022-11-29T08:10:07.156Z,14.20
2022-11-29T08:12:33.570Z,15.82
2022-11-29T08:15:00.153Z,19.65
2022-11-29T08:19:53.076Z,17.23
2022-11-29T08:22:19.888Z,20.05
2022-11-29T08:24:46.555Z,17.02
2022-11-29T08:27:13.249Z,15.82
2022-11-29T08:29:39.719Z,18.00
2022-11-29T08:34:34.083Z,12.73
2022-11-29T08:39:26.894Z,13.38
2022-11-29T08:41:53.298Z,16.55
2022-11-29T08:44:20.091Z,15.38
2022-11-29T08:47:04.960Z,13.63
2022-11-29T08:49:31.381Z,11.27
2022-11-29T08:52:17.743Z,13.65
2022-11-29T08:54:44.690Z,17.73
2022-11-29T08:57:38.390Z,14.98
2022-11-29T08:59:57.709Z,11.85
2022-11-29T09:02:26.701Z,11.88
2022-11-29T09:04:53.139Z,9.93
2022-11-29T09:07:19.590Z,13.77
2022-11-29T09:12:12.527Z,11.52
2022-11-29T09:14:38.905Z,14.43
2022-11-29T09:17:05.431Z,13.13
2022-11-29T09:21:58.708Z,19.08
2022-11-29T09:24:25.233Z,16.75
2022-11-29T09:29:18.859Z,15.63
2022-11-29T09:34:16.087Z,12.55
2022-11-29T09:36:44.137Z,12.10
2022-11-29T09:39:12.373Z,16.38
2022-11-29T09:42:06.242Z,14.00
2022-11-29T09:44:35.457Z,9.52
2022-11-29T09:47:20.515Z,9.27
2022-11-29T09:50:21.228Z,11.48
2022-11-29T09:53:09.437Z,11.05
2022-11-29T09:55:50.136Z,10.02
2022-11-29T09:58:21.574Z,8.48
2022-11-29T10:00:58.509Z,11.05
2022-11-29T10:03:45.163Z,13.45
2022-11-29T10:06:22.086Z,11.95
2022-11-29T10:08:55.703Z,8.20
2022-11-29T10:11:32.889Z,12.38
2022-11-29T10:14:24.494Z,10.15
2022-11-29T10:17:13.746Z,11.88
2022-11-29T10:19:47.431Z,10.20
2022-11-29T10:22:31.362Z,12.80
2022-11-29T10:25:01.351Z,10.75
2022-11-29T10:27:29.495Z,12.30
2022-11-29T10:29:59.136Z,9.23
2022-11-29T10:32:26.096Z,8.55
2022-11-29T10:34:52.744Z,14.00
2022-11-29T10:37:21.460Z,12.40
2022-11-29T10:39:58.529Z,12.98
2022-11-29T10:42:46.869Z,13.35
2022-11-29T10:45:35.050Z,12.48
2022-11-29T10:48:04.153Z,10.02
2022-11-29T10:50:33.623Z,11.10
2022-11-29T10:53:09.441Z,11.15
2022-11-29T10:55:46.825Z,15.38
2022-11-29T10:58:28.402Z,15.77
2022-11-29T11:00:57.218Z,10.55
2022-11-29T11:03:43.323Z,16.92
2022-11-29T11:06:14.271Z,15.60
2022-11-29T11:08:44.840Z,11.15
2022-11-29T11:11:12.144Z,12.70
2022-11-29T11:13:40.796Z,12.50
2022-11-29T11:16:14.454Z,13.27
2022-11-29T11:18:41.316Z,10.82
2022-11-29T11:21:11.005Z,13.13
2022-11-29T11:23:45.447Z,13.90
2022-11-29T11:26:13.504Z,11.35
2022-11-29T11:29:02.281Z,12.75
2022-11-29T11:31:35.418Z,11.40
2022-11-29T11:34:34.241Z,12.05
2022-11-29T11:37:22.095Z,11.07
2022-11-29T11:42:39.029Z,9.60
2022-11-29T11:45:11.486Z,10.18
2022-11-29T11:47:44.011Z,11.70
2022-11-29T11:50:16.606Z,14.32
2022-11-29T11:52:53.791Z,14.98
2022-11-29T11:58:12.771Z,13.45
2022-11-29T12:03:31.414Z,13.25
2022-11-29T12:06:07.988Z,15.25
2022-11-29T12:08:36.626Z,14.73
2022-11-29T12:11:07.736Z,13.02
2022-11-29T12:13:39.800Z,11.65
2022-11-29T12:16:14.432Z,17.90
2022-11-29T12:18:47.603Z,13.05
2022-11-29T12:21:22.932Z,18.25
2022-11-29T12:23:59.952Z,19.15
2022-11-29T12:29:19.608Z,16.33
2022-11-29T12:32:04.321Z,13.88
2022-11-29T12:34:43.473Z,16.80
2022-11-29T12:37:31.367Z,10.23
2022-11-29T12:42:55.131Z,18.38
2022-11-29T12:45:33.011Z,10.93
2022-11-29T12:48:14.535Z,13.75
2022-11-29T12:51:06.006Z,8.63
2022-11-29T12:53:43.748Z,10.65
2022-11-29T12:56:25.759Z,10.85
2022-11-29T12:59:28.770Z,15.18
2022-11-29T13:02:16.055Z,12.07
2022-11-29T13:05:19.412Z,11.75
2022-11-29T13:07:48.727Z,15.13
2022-11-29T13:10:39.901Z,13.25
2022-11-29T13:13:25.462Z,11.02
2022-11-29T13:16:06.682Z,8.23
2022-11-29T13:18:47.278Z,14.02
2022-11-29T13:21:25.888Z,10.98
2022-11-29T13:24:42.978Z,10.45
2022-11-29T13:27:18.251Z,8.65
2022-11-29T13:29:46.260Z,18.98
2022-11-29T13:32:36.332Z,10.27
2022-11-29T13:35:20.184Z,16.17
2022-11-29T13:38:08.540Z,9.82
2022-11-29T13:40:51.803Z,12.45
2022-11-29T13:43:30.295Z,13.50
2022-11-29T13:46:16.862Z,15.70
2022-11-29T13:48:47.589Z,16.88
2022-11-29T13:51:34.391Z,14.55
2022-11-29T13:54:04.808Z,12.57
2022-11-29T13:56:47.824Z,16.70
2022-11-29T13:59:31.624Z,13.60
2022-11-29T14:01:59.145Z,13.43
2022-11-29T14:04:33.682Z,14.15
2022-11-29T14:07:18.364Z,14.77
2022-11-29T14:09:50.658Z,12.35
2022-11-29T14:12:35.900Z,13.05
2022-11-29T14:15:31.663Z,13.55
2022-11-29T14:18:03.511Z,13.05
2022-11-29T14:20:29.920Z,11.23
2022-11-29T14:23:05.395Z,13.80
2022-11-29T14:25:51.103Z,16.83
2022-11-29T14:28:18.239Z,14.10
2022-11-29T14:30:44.560Z,13.50
2022-11-29T14:33:38.501Z,17.42
2022-11-29T14:36:43.595Z,16.17
2022-11-29T14:39:13.043Z,14.52
2022-11-29T14:41:54.510Z,12.65
2022-11-29T14:44:28.024Z,14.48
2022-11-29T14:47:02.263Z,12.60
2022-11-29T14:49:30.115Z,12.00
2022-11-29T14:52:26.088Z,13.05
2022-11-29T14:55:01.774Z,13.07
2022-11-29T14:57:52.787Z,10.93
2022-11-29T15:00:30.383Z,9.48
2022-11-29T15:03:20.514Z,15.32
2022-11-29T15:05:59.438Z,13.85
2022-11-29T15:08:36.625Z,12.93
2022-11-29T15:11:11.687Z,10.60
2022-11-29T15:14:04.690Z,12.48
2022-11-29T15:17:20.057Z,13.32
2022-11-29T15:20:23.668Z,10.45
2022-11-29T15:22:55.152Z,13.65
2022-11-29T15:25:28.233Z,15.35
2022-11-29T15:27:57.447Z,13.82
2022-11-29T15:30:39.047Z,14.30
2022-11-29T15:33:27.307Z,16.30
2022-11-29T15:36:24.246Z,16.05
2022-11-29T15:38:55.365Z,12.60
2022-11-29T15:41:31.796Z,12.23
2022-11-29T15:44:04.682Z,14.93
2022-11-29T15:46:33.303Z,16.02
2022-11-29T15:49:30.578Z,15.98
2022-11-29T15:52:05.955Z,16.25
2022-11-29T15:54:41.994Z,13.18
2022-11-29T15:57:33.099Z,13.73
2022-11-29T16:00:02.809Z,16.38
2022-11-29T16:02:34.481Z,14.57
2022-11-29T16:05:19.464Z,18.90
2022-11-29T16:07:49.281Z,13.90
2022-11-29T16:10:34.867Z,12.80
2022-11-29T16:13:36.825Z,13.57
2022-11-29T16:16:06.153Z,14.10
2022-11-29T16:18:33.506Z,13.10
2022-11-29T16:21:01.553Z,11.60
2022-11-29T16:23:41.216Z,10.27
2022-11-29T16:26:18.976Z,19.58
2022-11-29T16:28:48.294Z,17.88
2022-11-29T16:31:18.132Z,11.98
2022-11-29T16:33:47.341Z,14.40
2022-11-29T16:36:20.614Z,12.52
2022-11-29T16:38:50.171Z,12.07
2022-11-29T16:41:37.565Z,12.30
2022-11-29T16:44:06.406Z,13.05
2022-11-29T16:46:39.758Z,13.63
2022-11-29T16:49:35.025Z,14.35
2022-11-29T16:52:03.747Z,17.33
2022-11-29T16:54:34.009Z,16.42
2022-11-29T16:57:05.108Z,17.50
2022-11-29T16:59:32.442Z,18.60
2022-11-29T17:01:59.032Z,17.10
2022-11-29T17:04:27.442Z,22.58
2022-11-29T17:06:55.805Z,19.67
2022-11-29T17:09:27.748Z,16.63
2022-11-29T17:11:55.654Z,17.35
2022-11-29T17:14:22.184Z,16.13
2022-11-29T17:16:49.585Z,18.33
2022-11-29T17:19:16.518Z,17.75
2022-11-29T17:21:43.131Z,16.73
2022-11-29T17:26:37.752Z,14.35
2022-11-29T17:29:04.181Z,14.88
2022-11-29T17:31:31.353Z,14.50
2022-11-29T17:34:01.631Z,15.77
2022-11-29T17:36:28.593Z,12.40
2022-11-29T17:38:55.019Z,14.80
2022-11-29T17:41:23.691Z,17.02
2022-11-29T17:43:52.971Z,14.75
2022-11-29T17:46:26.499Z,15.68
2022-11-29T17:48:54.809Z,15.45
2022-11-29T17:51:50.577Z,17.27
2022-11-29T17:54:10.300Z,22.08
2022-11-29T17:56:37.015Z,15.82
2022-11-29T17:59:04.883Z,18.77
2022-11-29T18:01:34.039Z,17.27
2022-11-29T18:04:03.179Z,17.75
2022-11-29T18:06:34.121Z,14.48
2022-11-29T18:09:01.684Z,18.88
2022-11-29T18:11:30.998Z,23.25
2022-11-29T18:13:58.892Z,21.00
2022-11-29T18:16:31.236Z,18.83
2022-11-29T18:19:10.505Z,17.83
2022-11-29T18:21:38.199Z,21.70
2022-11-29T18:24:06.042Z,21.98
2022-11-29T18:26:34.413Z,20.73
2022-11-29T18:29:00.979Z,23.73
2022-11-29T18:34:00.636Z,21.42
2022-11-29T18:36:32.174Z,24.45
2022-11-29T18:39:01.222Z,20.45
2022-11-29T18:41:29.890Z,21.92
2022-11-29T18:43:58.911Z,22.52
2022-11-29T18:46:26.598Z,27.90
2022-11-29T18:48:53.084Z,22.13
2022-11-29T18:51:20.192Z,23.23
2022-11-29T18:53:47.310Z,25.35
2022-11-29T18:56:20.002Z,21.08
2022-11-29T18:58:48.037Z,20.27
2022-11-29T19:01:17.287Z,20.85
2022-11-29T19:03:46.161Z,21.05
2022-11-29T19:06:15.511Z,23.58
2022-11-29T19:08:43.180Z,20.50
2022-11-29T19:11:17.842Z,20.67
2022-11-29T19:13:44.620Z,23.33
2022-11-29T19:16:15.525Z,22.45
2022-11-29T19:18:42.558Z,20.73
2022-11-29T19:21:16.465Z,22.63
2022-11-29T19:23:44.311Z,23.88
2022-11-29T19:26:13.563Z,24.17
2022-11-29T19:28:45.367Z,25.33
2022-11-29T19:31:14.292Z,23.30
2022-11-29T19:33:43.627Z,23.88
2022-11-29T19:36:17.825Z,24.73
2022-11-29T19:38:50.141Z,22.48
2022-11-29T19:41:22.331Z,51.60
2022-11-29T19:43:49.410Z,32.38
2022-11-29T19:46:22.004Z,26.67
2022-11-29T19:48:49.295Z,25.40
2022-11-29T19:51:19.416Z,25.45
2022-11-29T19:53:47.140Z,26.20
2022-11-29T19:56:17.502Z,25.65
2022-11-29T19:58:44.325Z,25.17
2022-11-29T20:01:17.278Z,22.35
2022-11-29T20:03:45.196Z,22.30
2022-11-29T20:06:13.392Z,25.60
2022-11-29T20:08:40.846Z,28.25
2022-11-29T20:11:19.376Z,22.00
2022-11-29T20:13:48.094Z,21.17
2022-11-29T20:16:18.218Z,24.73
2022-11-29T20:18:50.966Z,24.77
2022-11-29T20:21:28.104Z,25.52
2022-11-29T20:23:59.998Z,21.35
2022-11-29T20:26:30.866Z,22.75
2022-11-29T20:28:57.759Z,23.20
2022-11-29T20:31:25.204Z,20.77
2022-11-29T20:33:53.786Z,20.40
2022-11-29T20:36:48.165Z,22.23
2022-11-29T20:39:37.656Z,19.73
2022-11-29T20:42:29.122Z,20.02
2022-11-29T20:44:59.258Z,23.33
2022-11-29T20:47:28.414Z,19.27
2022-11-29T20:49:55.257Z,21.05
2022-11-29T20:52:45.701Z,22.23
2022-11-29T20:55:12.203Z,21.98
2022-11-29T20:57:38.695Z,21.67
2022-11-29T21:00:11.533Z,21.33
2022-11-29T21:02:38.795Z,24.13
2022-11-29T21:05:06.150Z,17.48
2022-11-29T21:07:32.724Z,21.50
2022-11-29T21:12:29.617Z,17.80
2022-11-29T21:14:57.020Z,21.88
2022-11-29T21:17:27.540Z,18.90
2022-11-29T21:19:58.699Z,22.38
2022-11-29T21:23:00.719Z,21.77
2022-11-29T21:25:40.585Z,24.40
2022-11-29T21:28:12.812Z,19.27
2022-11-29T21:30:41.518Z,20.70
2022-11-29T21:33:10.000Z,22.73
2022-11-29T21:35:39.765Z,26.23
2022-11-29T21:38:10.048Z,27.15
2022-11-29T21:40:36.472Z,26.73
2022-11-29T21:43:02.864Z,26.02
2022-11-29T21:45:29.311Z,32.38
2022-11-29T21:47:59.502Z,25.10
2022-11-29T21:50:28.780Z,24.98
2022-11-29T21:52:56.911Z,26.00
2022-11-29T21:55:31.417Z,25.90
2022-11-29T21:57:58.670Z,21.92
2022-11-29T22:02:51.650Z,28.85
2022-11-29T22:07:44.434Z,23.55
2022-11-29T22:10:13.650Z,24.13
2022-11-29T22:12:45.911Z,27.88
2022-11-29T22:15:22.952Z,26.10
2022-11-29T22:17:52.188Z,33.47
2022-11-29T22:22:47.521Z,32.67
2022-11-29T22:25:14.653Z,39.03
2022-11-29T22:27:41.071Z,35.05
2022-11-29T22:30:08.984Z,37.53
2022-11-29T22:32:35.483Z,34.25
2022-11-29T22:35:01.862Z,37.90
2022-11-29T22:37:28.316Z,38.55
2022-11-29T22:39:54.772Z,34.67
2022-11-29T22:42:21.175Z,36.55
2022-11-29T22:44:48.072Z,44.13
2022-11-29T22:47:14.620Z,39.15
2022-11-29T22:49:41.030Z,40.47
2022-11-29T22:52:07.509Z,33.13
2022-11-29T22:54:33.898Z,36.17
2022-11-29T22:57:00.334Z,33.50
2022-11-29T22:59:26.699Z,32.38
2022-11-29T23:01:53.182Z,35.45
2022-11-29T23:04:19.565Z,32.28
2022-11-29T23:06:46.270Z,31.02
2022-11-29T23:09:19.831Z,37.15
2022-11-29T23:11:52.733Z,36.72
2022-11-29T23:14:20.114Z,35.72
2022-11-29T23:16:46.948Z,37.05
2022-11-29T23:19:16.011Z,35.90
2022-11-29T23:21:44.610Z,31.90
2022-11-29T23:24:11.405Z,35.17
2022-11-29T23:26:41.098Z,32.90
2022-11-29T23:29:10.530Z,33.50
2022-11-29T23:31:36.997Z,32.75
2022-11-29T23:34:03.577Z,34.63
2022-11-29T23:38:56.410Z,29.27
2022-11-29T23:41:22.888Z,36.38
2022-11-29T23:43:49.301Z,27.23
2022-11-29T23:46:21.271Z,33.33
2022-11-29T23:48:48.351Z,36.67
2022-11-29T23:51:16.184Z,29.30
2022-11-29T23:53:43.044Z,32.00
2022-11-29T23:56:15.059Z,28.42
2022-11-29T23:58:42.210Z,28.00
